Bolivar, OH (44612)

10:02 AM EDT on April 25, 2017 (GMT -0400)
GET | | Change Station

Elev 980 ft 40.63 °N, 81.53 °W | Updated 2 minutes ago

Rain
Rain
55.2 °F
Feels Like 55.2 °F
N
0.0
Wind Variable Wind from South
Gusts 3.0 mph

Today
High -- | Low -- °F
--% Chance of Precip.
Yesterday
High -- | Low -- °F
Precip. -- in
Pressure 29.91 in
Visibility 10.0 miles
Clouds Mostly Cloudy 1200 ft
Overcast 4100 ft
Dew Point 54 °F
Humidity 95%
Rainfall 0.07 in
Snow Depth Not available.
6:32 AM 8:15 PM
Waning Crescent, 1% visible
METAR KPHD 251353Z AUTO 10007KT 10SM BKN012 OVC041 12/11 A2991 RMK AO2 RAE26 SLP128 P0001 T01220111
Pressure 29.91 in
Visibility 10.0 miles
Clouds Mostly Cloudy 1200 ft
Overcast 4100 ft
Dew Point 54 °F
Humidity 95%
Rainfall 0.07 in
Snow Depth Not available.
6:32 AM 8:15 PM
Waning Crescent, 1% visible
METAR KPHD 251353Z AUTO 10007KT 10SM BKN012 OVC041 12/11 A2991 RMK AO2 RAE26 SLP128 P0001 T01220111

Get Severe Weather Alerts

Thanks for signing up!

Be on the lookout for a verification email in your inbox.

You'll start receiving the daily forecast at 8 AM.

×

10-Day Weather Forecast

Almanac

Astronomy

Apr. 25, 2017 Rise Set
Actual Time
Civil Twilight
Nautical Twilight
Astronomical Twilight
Moon
Length of Visible Light
Length of Day
Tomorrow will be .
, % of the Moon is Illuminated

Today's Extremes

State Highs State Lows

Community

WunderPhotos

WunderBlog® & News

Nearby

Air Quality

  Air Quality AQ Index Pollutant
Not available.

Snow Depth

Station Depth Elevation

Earthquake Activity

City Distance Mag. Time & Date
Minimum magnitude displayed is 2.5.

Coastal Water Temperatures

Place Temperature

Stations

Nearby Weather Stations

Station Location Temp. Windchill Dew Point Humidity Wind Precip. Elev Updated Type
                   

Watches & Warnings

There are currently no watches in effect.